Time;durP1;ratioP1;P1;durP2;ratioP2;P2;SDS_P1;SDS_P2;PMS_P1;PMS_P2;Temp;Humidity;BMP_temperature;BMP_pressure;BME280_temperature;BME280_humidity;BME280_pressure;Samples;Min_cycle;Max_cycle;Signal;HPM_P1;HPM_P2
2022/02/13 00:01:43;;;;;;;16.55;8.13;;;0.20;96.10;;;;;;5032435;28;20358;-68
2022/02/13 00:04:09;;;;;;;20.63;9.60;;;0.20;97.00;;;;;;5026070;28;20108;-67
2022/02/13 00:06:35;;;;;;;19.00;9.05;;;0.10;96.90;;;;;;5024355;28;20037;-68
2022/02/13 00:09:00;;;;;;;19.63;10.57;;;0.10;97.60;;;;;;5031472;28;20295;-68
2022/02/13 00:11:26;;;;;;;14.77;7.63;;;0.30;97.70;;;;;;5015762;28;20014;-68
2022/02/13 00:13:52;;;;;;;15.57;8.15;;;0.30;97.20;;;;;;5033713;28;20030;-68
2022/02/13 00:16:18;;;;;;;12.60;5.90;;;0.40;97.40;;;;;;5026964;28;20030;-67
2022/02/13 00:18:47;;;;;;;14.32;7.10;;;0.70;97.80;;;;;;5030038;28;20050;-68
2022/02/13 00:21:13;;;;;;;15.05;5.85;;;1.10;97.40;;;;;;5042644;28;20029;-66
2022/02/13 00:23:39;;;;;;;12.30;5.47;;;1.90;95.80;;;;;;5036821;28;20026;-66
2022/02/13 00:26:04;;;;;;;12.52;5.47;;;2.30;93.80;;;;;;5036370;28;20021;-66
2022/02/13 00:28:36;;;;;;;12.50;5.32;;;2.50;92.80;;;;;;5036456;28;20079;-66
2022/02/13 00:31:02;;;;;;;11.80;5.53;;;2.70;92.10;;;;;;5033899;28;20043;-66
2022/02/13 00:33:32;;;;;;;10.68;5.20;;;2.80;91.90;;;;;;5033591;28;20048;-67
2022/02/13 00:35:58;;;;;;;14.45;6.07;;;2.80;91.70;;;;;;5034510;28;20034;-68
2022/02/13 00:38:24;;;;;;;11.07;5.57;;;3.10;91.10;;;;;;5025533;28;20022;-68
2022/02/13 00:40:49;;;;;;;11.35;4.97;;;3.30;90.40;;;;;;5032623;28;20108;-68
2022/02/13 00:43:17;;;;;;;17.60;5.65;;;3.30;90.60;;;;;;5034007;28;20429;-68
2022/02/13 00:45:46;;;;;;;13.38;5.15;;;3.40;90.30;;;;;;5035457;28;20445;-68
2022/02/13 00:48:15;;;;;;;9.38;5.68;;;3.50;89.80;;;;;;5037068;28;20030;-68
2022/02/13 00:50:42;;;;;;;10.43;5.13;;;3.50;90.00;;;;;;5035766;28;20071;-68
2022/02/13 00:53:08;;;;;;;12.05;5.95;;;3.40;90.20;;;;;;5029731;28;20026;-67
2022/02/13 00:55:33;;;;;;;11.95;5.07;;;3.20;90.90;;;;;;5036181;28;20034;-67
2022/02/13 00:57:59;;;;;;;10.88;4.70;;;3.20;91.20;;;;;;5037769;28;20107;-67
2022/02/13 01:00:28;;;;;;;8.85;4.53;;;3.60;90.70;;;;;;5036858;28;20033;-68
2022/02/13 01:02:53;;;;;;;9.13;5.00;;;4.30;88.30;;;;;;5037312;28;20040;-68
2022/02/13 01:05:19;;;;;;;16.63;5.30;;;4.20;87.80;;;;;;5036411;28;20030;-67
2022/02/13 01:07:45;;;;;;;10.73;5.32;;;4.30;87.70;;;;;;5025940;28;21476;-67
2022/02/13 01:10:10;;;;;;;11.68;4.90;;;4.40;87.20;;;;;;5031218;28;20049;-67
2022/02/13 01:12:36;;;;;;;11.25;5.15;;;4.70;86.50;;;;;;5026781;28;20037;-67
2022/02/13 01:15:03;;;;;;;11.23;5.70;;;4.60;86.00;;;;;;5031402;28;20033;-67
2022/02/13 01:17:29;;;;;;;7.95;4.85;;;4.40;86.50;;;;;;5034868;28;20326;-68
2022/02/13 01:19:55;;;;;;;9.77;5.88;;;4.10;87.40;;;;;;5037068;28;20045;-67
2022/02/13 01:22:20;;;;;;;10.27;5.10;;;3.90;87.40;;;;;;5021413;28;20083;-67
2022/02/13 01:24:46;;;;;;;12.52;5.25;;;3.60;88.50;;;;;;5036857;28;20029;-67
2022/02/13 01:27:12;;;;;;;11.32;4.68;;;3.30;89.60;;;;;;5036045;28;20026;-67
2022/02/13 01:29:38;;;;;;;10.95;5.43;;;3.30;89.90;;;;;;5027742;28;20076;-67
2022/02/13 01:32:04;;;;;;;11.30;4.93;;;3.10;90.30;;;;;;5034831;28;20045;-67
2022/02/13 01:34:29;;;;;;;9.13;4.70;;;2.90;90.90;;;;;;5036295;28;20049;-67
2022/02/13 01:36:55;;;;;;;12.57;5.30;;;3.00;91.30;;;;;;5032713;28;20057;-67
2022/02/13 01:39:21;;;;;;;9.82;5.45;;;3.00;91.40;;;;;;5033705;28;20076;-66
2022/02/13 01:41:49;;;;;;;13.75;5.95;;;2.90;91.60;;;;;;5028033;28;20034;-67
2022/02/13 01:44:33;;;;;;;14.18;5.88;;;2.70;91.30;;;;;;5035422;28;20040;-67
2022/02/13 01:47:00;;;;;;;11.88;5.00;;;2.60;92.60;;;;;;5032940;28;20071;-67
2022/02/13 01:49:25;;;;;;;12.77;5.72;;;2.70;92.10;;;;;;5027337;28;20326;-66
2022/02/13 01:51:54;;;;;;;12.73;6.00;;;2.70;92.10;;;;;;5026335;28;20114;-67
2022/02/13 01:54:20;;;;;;;14.15;5.82;;;2.60;92.10;;;;;;5025895;28;20025;-67
2022/02/13 01:56:46;;;;;;;10.25;5.03;;;2.40;92.30;;;;;;5030629;28;20059;-68
2022/02/13 01:59:12;;;;;;;13.43;5.90;;;2.40;93.00;;;;;;5028184;28;20029;-66
2022/02/13 02:01:38;;;;;;;11.30;5.07;;;2.70;92.40;;;;;;5036119;28;20426;-67
2022/02/13 02:04:04;;;;;;;10.40;5.82;;;2.70;92.20;;;;;;5036004;28;20061;-67
2022/02/13 02:06:30;;;;;;;8.80;4.78;;;2.70;92.00;;;;;;5029646;28;20091;-67
2022/02/13 02:08:55;;;;;;;12.57;5.47;;;2.90;92.30;;;;;;5018771;28;20025;-66
2022/02/13 02:11:26;;;;;;;10.48;5.10;;;3.30;91.80;;;;;;5028068;28;20319;-68
2022/02/13 02:13:52;;;;;;;12.15;5.10;;;3.60;89.40;;;;;;5027425;28;20414;-67
2022/02/13 02:16:17;;;;;;;15.68;5.10;;;3.70;89.80;;;;;;5033386;28;20036;-66
2022/02/13 02:18:43;;;;;;;9.00;4.88;;;3.70;89.80;;;;;;5030262;28;20061;-67
2022/02/13 02:21:09;;;;;;;12.15;5.05;;;3.70;89.70;;;;;;5034896;28;20022;-67
2022/02/13 02:23:37;;;;;;;11.93;5.43;;;3.70;89.60;;;;;;5033105;28;20029;-67
2022/02/13 02:26:03;;;;;;;11.50;5.88;;;3.70;89.90;;;;;;5030946;28;20022;-67
2022/02/13 02:28:32;;;;;;;11.48;5.05;;;3.70;90.00;;;;;;5035147;28;20331;-67
2022/02/13 02:30:58;;;;;;;14.88;5.15;;;3.70;90.10;;;;;;5030046;28;20083;-67
2022/02/13 02:33:23;;;;;;;11.27;4.88;;;3.70;90.10;;;;;;5031852;28;20041;-67
2022/02/13 02:35:49;;;;;;;11.57;5.10;;;3.90;89.70;;;;;;5036256;28;20036;-67
2022/02/13 02:38:16;;;;;;;11.82;4.95;;;4.00;89.80;;;;;;5029445;28;20037;-68
2022/02/13 02:40:43;;;;;;;13.32;4.65;;;4.30;89.10;;;;;;5019415;28;21463;-67
2022/02/13 02:43:08;;;;;;;12.77;5.00;;;4.40;88.30;;;;;;5019937;28;20061;-66
2022/02/13 02:45:34;;;;;;;8.82;4.38;;;4.70;87.50;;;;;;5018873;28;20068;-66
2022/02/13 02:48:00;;;;;;;12.50;4.53;;;4.80;86.70;;;;;;5018759;28;20022;-66
2022/02/13 02:50:26;;;;;;;10.45;4.78;;;4.50;86.60;;;;;;5019149;28;20021;-66
2022/02/13 02:52:51;;;;;;;12.27;5.18;;;4.40;87.30;;;;;;5021786;28;20088;-66
2022/02/13 02:55:17;;;;;;;11.77;5.22;;;4.30;87.90;;;;;;5022152;28;20065;-66
2022/02/13 02:57:43;;;;;;;12.00;5.25;;;4.00;88.20;;;;;;5018096;28;20045;-66
2022/02/13 03:00:10;;;;;;;11.63;4.80;;;3.70;89.30;;;;;;5020033;28;20462;-66
2022/02/13 03:02:36;;;;;;;14.10;5.15;;;3.60;89.60;;;;;;5028891;28;20029;-66
2022/02/13 03:05:03;;;;;;;10.57;4.72;;;3.50;90.40;;;;;;5027577;28;20385;-66
2022/02/13 03:07:28;;;;;;;12.20;5.35;;;3.20;90.80;;;;;;5023694;28;20060;-67
2022/02/13 03:09:54;;;;;;;11.82;4.63;;;3.00;91.90;;;;;;5027259;28;20061;-66
2022/02/13 03:12:20;;;;;;;9.32;4.82;;;3.00;92.50;;;;;;5020277;28;20030;-65
2022/02/13 03:14:46;;;;;;;9.93;4.47;;;3.00;92.60;;;;;;5028676;28;20033;-65
2022/02/13 03:17:11;;;;;;;10.45;5.07;;;3.30;92.00;;;;;;5019137;28;20141;-65
2022/02/13 03:19:38;;;;;;;12.93;4.80;;;3.70;90.60;;;;;;5030641;28;20034;-65
2022/02/13 03:22:04;;;;;;;10.73;4.63;;;3.80;89.60;;;;;;5032520;28;20073;-66
2022/02/13 03:24:30;;;;;;;11.88;5.13;;;3.80;89.80;;;;;;5034810;28;20026;-64
2022/02/13 03:26:56;;;;;;;11.55;5.13;;;3.80;89.60;;;;;;5032314;28;20098;-65
2022/02/13 03:29:24;;;;;;;9.20;4.63;;;3.70;90.00;;;;;;5032188;28;20025;-67
2022/02/13 03:31:50;;;;;;;15.43;5.38;;;3.90;89.60;;;;;;5032814;28;20045;-67
2022/02/13 03:34:16;;;;;;;13.57;5.32;;;3.80;89.40;;;;;;5032892;28;20032;-67
2022/02/13 03:36:44;;;;;;;9.82;4.82;;;3.60;89.90;;;;;;5021155;28;20026;-67
2022/02/13 03:39:12;;;;;;;8.98;5.35;;;3.40;90.60;;;;;;5033099;28;20381;-68
2022/02/13 03:41:38;;;;;;;11.25;4.93;;;3.40;90.70;;;;;;5030480;28;20029;-67
2022/02/13 03:44:08;;;;;;;10.15;4.63;;;3.50;90.60;;;;;;5022701;28;20036;-66
2022/02/13 03:46:34;;;;;;;11.60;4.38;;;3.60;90.20;;;;;;5029601;28;20026;-66
2022/02/13 03:49:00;;;;;;;10.13;4.88;;;3.40;90.10;;;;;;5030065;28;20421;-66
2022/02/13 03:51:26;;;;;;;11.00;4.85;;;3.20;90.60;;;;;;5024741;28;20030;-67
2022/02/13 03:53:51;;;;;;;10.27;4.43;;;3.10;91.40;;;;;;5024529;28;20026;-67
2022/02/13 03:56:17;;;;;;;12.02;5.13;;;3.00;91.60;;;;;;5029152;28;20026;-66
2022/02/13 03:58:42;;;;;;;11.43;4.75;;;2.90;92.10;;;;;;5031555;28;20030;-66
2022/02/13 04:01:08;;;;;;;12.52;5.22;;;2.80;92.30;;;;;;5033338;28;20026;-67
2022/02/13 04:03:34;;;;;;;9.07;4.50;;;2.70;92.70;;;;;;5035846;28;20026;-67
2022/02/13 04:05:59;;;;;;;13.75;5.57;;;2.60;93.00;;;;;;5025278;28;20487;-66
2022/02/13 04:08:26;;;;;;;11.30;4.80;;;2.80;93.00;;;;;;5033845;28;20025;-66
2022/02/13 04:10:51;;;;;;;11.23;4.90;;;2.80;92.40;;;;;;5038631;28;20097;-66
2022/02/13 04:13:17;;;;;;;13.40;5.22;;;2.80;92.40;;;;;;5038547;28;20109;-65
2022/02/13 04:15:43;;;;;;;9.52;4.53;;;2.70;92.50;;;;;;5038166;28;20112;-66
2022/02/13 04:18:16;;;;;;;11.07;4.55;;;2.80;92.50;;;;;;5035807;28;20110;-66
2022/02/13 04:20:42;;;;;;;11.25;4.50;;;3.10;91.70;;;;;;5024339;28;20026;-66
2022/02/13 04:23:08;;;;;;;14.50;4.05;;;3.40;91.10;;;;;;5032784;28;20060;-67
2022/02/13 04:25:35;;;;;;;12.68;4.72;;;3.50;90.30;;;;;;5035490;28;20033;-66
2022/02/13 04:28:01;;;;;;;9.98;4.50;;;3.50;90.10;;;;;;5026870;28;20026;-65
2022/02/13 04:30:27;;;;;;;11.23;4.93;;;3.30;90.30;;;;;;5037557;28;20087;-66
2022/02/13 04:32:56;;;;;;;11.70;5.43;;;3.00;90.80;;;;;;5030315;28;20045;-66
2022/02/13 04:35:27;;;;;;;9.52;4.47;;;2.90;91.80;;;;;;5030366;28;20041;-66
2022/02/13 04:37:54;;;;;;;12.27;4.72;;;3.00;91.60;;;;;;5037664;28;20026;-66
2022/02/13 04:40:20;;;;;;;11.52;4.55;;;3.00;91.70;;;;;;5036636;28;20032;-65
2022/02/13 04:42:47;;;;;;;9.07;4.53;;;3.00;91.80;;;;;;5035255;28;20109;-66
2022/02/13 04:45:13;;;;;;;18.48;6.22;;;3.00;91.80;;;;;;5037555;28;20033;-66
2022/02/13 04:47:39;;;;;;;10.55;4.97;;;3.00;92.40;;;;;;5036427;28;20036;-66
2022/02/13 04:50:06;;;;;;;12.90;5.75;;;3.00;92.20;;;;;;5036237;28;20024;-66
2022/02/13 04:52:31;;;;;;;15.77;6.00;;;3.00;92.40;;;;;;5030836;28;20029;-66
2022/02/13 04:54:57;;;;;;;13.02;5.30;;;3.00;92.40;;;;;;5038034;28;20026;-65
2022/02/13 04:57:22;;;;;;;10.45;4.72;;;3.20;92.50;;;;;;5028335;28;20029;-68
2022/02/13 04:59:48;;;;;;;12.52;5.85;;;3.40;92.00;;;;;;5031822;28;20029;-67
2022/02/13 05:02:14;;;;;;;12.57;5.50;;;3.30;91.70;;;;;;5034675;28;20492;-66
2022/02/13 05:04:40;;;;;;;11.40;5.30;;;3.30;92.00;;;;;;5037708;28;20064;-66
2022/02/13 05:07:06;;;;;;;10.20;5.90;;;3.20;91.50;;;;;;5035139;28;20052;-66
2022/02/13 05:09:32;;;;;;;16.90;7.65;;;3.20;92.10;;;;;;5037292;28;20042;-66
2022/02/13 05:11:58;;;;;;;10.80;5.40;;;3.20;92.30;;;;;;5035966;28;20026;-67
2022/02/13 05:14:24;;;;;;;11.80;5.03;;;3.30;92.00;;;;;;5036968;28;20028;-66
2022/02/13 05:16:50;;;;;;;14.52;5.07;;;3.10;91.80;;;;;;5032449;28;20032;-66
2022/02/13 05:19:16;;;;;;;13.15;6.07;;;2.80;92.50;;;;;;5033142;28;20437;-66
2022/02/13 05:21:56;;;;;;;14.13;6.03;;;2.60;93.40;;;;;;5032642;28;20033;-67
2022/02/13 05:24:22;;;;;;;11.80;5.93;;;2.50;93.90;;;;;;5035772;28;20028;-67
2022/02/13 05:26:51;;;;;;;14.32;7.20;;;2.60;94.60;;;;;;5036692;28;20030;-66
2022/02/13 05:29:17;;;;;;;10.95;5.00;;;2.80;94.10;;;;;;5031835;28;20319;-65
2022/02/13 05:31:43;;;;;;;13.02;5.93;;;2.90;93.90;;;;;;5026800;28;20083;-65
2022/02/13 05:34:14;;;;;;;11.95;5.10;;;2.90;93.60;;;;;;5034924;28;20341;-65
2022/02/13 05:36:40;;;;;;;15.85;6.97;;;2.90;93.40;;;;;;5031944;28;20060;-66
2022/02/13 05:39:06;;;;;;;12.13;5.93;;;2.70;93.50;;;;;;5022413;28;20041;-65
2022/02/13 05:41:31;;;;;;;8.93;4.93;;;2.60;93.90;;;;;;5025287;28;20087;-66
2022/02/13 05:43:57;;;;;;;13.15;5.50;;;2.70;93.90;;;;;;5031948;28;20038;-67
2022/02/13 05:46:25;;;;;;;12.77;5.53;;;2.60;93.80;;;;;;5030099;28;20358;-67
2022/02/13 05:48:51;;;;;;;12.35;5.63;;;2.70;94.00;;;;;;5036449;28;20014;-65
2022/02/13 05:51:17;;;;;;;12.88;5.93;;;2.60;93.60;;;;;;5028697;28;20068;-66
2022/02/13 05:53:45;;;;;;;14.00;5.45;;;2.50;94.20;;;;;;5031196;28;20026;-65
2022/02/13 05:56:14;;;;;;;12.85;6.30;;;2.50;94.40;;;;;;5029755;28;20030;-66
2022/02/13 05:58:40;;;;;;;12.73;5.22;;;2.40;94.50;;;;;;5032482;28;20026;-67
2022/02/13 06:01:06;;;;;;;16.52;6.05;;;2.20;94.60;;;;;;5028763;28;20116;-66
2022/02/13 06:03:32;;;;;;;11.93;5.35;;;2.10;94.70;;;;;;5034676;28;20123;-67
2022/02/13 06:05:58;;;;;;;14.13;5.78;;;2.00;95.30;;;;;;5024268;28;20414;-66
2022/02/13 06:08:24;;;;;;;14.00;5.50;;;2.00;95.60;;;;;;5035988;28;20088;-66
2022/02/13 06:10:49;;;;;;;13.32;5.95;;;2.10;95.60;;;;;;5033352;28;20076;-65
2022/02/13 06:13:18;;;;;;;19.00;8.50;;;2.20;95.20;;;;;;5036036;28;20025;-65
2022/02/13 06:15:43;;;;;;;13.68;6.20;;;2.20;95.30;;;;;;5035254;28;20092;-65
2022/02/13 06:18:09;;;;;;;12.10;6.85;;;2.30;95.30;;;;;;5035618;28;20029;-64
2022/02/13 06:20:36;;;;;;;17.27;6.72;;;2.40;95.10;;;;;;5034260;28;20381;-65
2022/02/13 06:23:01;;;;;;;12.50;6.20;;;2.40;94.80;;;;;;5027696;28;20748;-67
2022/02/13 06:25:27;;;;;;;11.48;6.03;;;2.30;95.00;;;;;;5026207;28;20065;-66
2022/02/13 06:27:55;;;;;;;11.40;6.03;;;2.20;94.80;;;;;;5032088;28;20056;-66
2022/02/13 06:30:21;;;;;;;25.58;12.15;;;2.20;95.40;;;;;;5034518;28;20112;-66
2022/02/13 06:32:46;;;;;;;25.20;10.77;;;2.10;95.30;;;;;;5025357;28;20113;-67
2022/02/13 06:35:12;;;;;;;30.08;12.95;;;2.10;95.60;;;;;;5036229;28;20041;-67
2022/02/13 06:37:38;;;;;;;14.82;8.10;;;2.10;95.50;;;;;;5036663;28;20075;-65
2022/02/13 06:40:07;;;;;;;18.30;8.63;;;2.10;95.70;;;;;;5035888;28;20103;-66
2022/02/13 06:42:33;;;;;;;19.08;8.88;;;2.10;95.90;;;;;;5026266;28;20022;-66
2022/02/13 06:44:59;;;;;;;14.40;8.73;;;2.00;95.80;;;;;;5035781;28;20183;-65
2022/02/13 06:47:24;;;;;;;16.13;8.40;;;2.00;96.10;;;;;;5033661;28;20029;-66
2022/02/13 06:49:50;;;;;;;17.02;8.18;;;2.00;96.10;;;;;;5035744;28;20334;-65
2022/02/13 06:52:16;;;;;;;16.20;7.63;;;2.00;96.10;;;;;;5035270;28;20024;-66
2022/02/13 06:54:41;;;;;;;19.38;8.70;;;2.00;96.40;;;;;;5037984;28;20029;-66
2022/02/13 06:57:07;;;;;;;14.60;7.55;;;2.00;96.50;;;;;;5039272;28;20033;-66
2022/02/13 06:59:33;;;;;;;16.63;7.13;;;2.10;96.50;;;;;;5032535;28;20029;-66
2022/02/13 07:01:58;;;;;;;18.83;7.05;;;2.10;96.20;;;;;;5034578;28;20025;-65
2022/02/13 07:04:24;;;;;;;13.18;6.95;;;2.10;96.10;;;;;;5035468;28;20415;-66
2022/02/13 07:06:50;;;;;;;13.98;7.53;;;2.20;96.20;;;;;;5035278;28;20038;-67
2022/02/13 07:09:15;;;;;;;16.80;7.40;;;2.10;95.70;;;;;;5035659;28;20021;-66
2022/02/13 07:11:41;;;;;;;14.18;6.60;;;2.10;96.30;;;;;;5035586;28;20064;-66
2022/02/13 07:14:07;;;;;;;15.68;7.70;;;2.30;96.40;;;;;;5033985;28;20022;-66
2022/02/13 07:16:32;;;;;;;16.00;7.22;;;2.30;95.90;;;;;;5033330;28;20030;-66
2022/02/13 07:18:58;;;;;;;13.88;7.25;;;2.40;95.60;;;;;;5033204;28;20326;-67
2022/02/13 07:21:24;;;;;;;16.55;7.60;;;2.40;95.40;;;;;;5034229;28;20381;-66
2022/02/13 07:23:49;;;;;;;18.58;8.65;;;2.40;95.30;;;;;;5033479;28;20487;-66
2022/02/13 07:26:15;;;;;;;16.85;7.80;;;2.40;95.30;;;;;;5032885;28;20034;-66
2022/02/13 07:28:59;;;;;;;14.70;8.65;;;2.50;95.40;;;;;;5032397;28;20021;-66
2022/02/13 07:31:25;;;;;;;16.70;7.50;;;2.60;95.00;;;;;;5032493;28;20018;-66
2022/02/13 07:33:51;;;;;;;15.63;8.30;;;2.60;94.70;;;;;;5034318;28;20367;-66
2022/02/13 07:36:17;;;;;;;14.35;8.70;;;2.70;94.80;;;;;;5035056;28;20116;-66
2022/02/13 07:38:42;;;;;;;30.90;15.77;;;2.80;94.30;;;;;;5035633;28;20029;-66
2022/02/13 07:41:08;;;;;;;34.90;17.83;;;2.90;93.70;;;;;;5034848;28;20371;-66
2022/02/13 07:43:34;;;;;;;28.27;14.40;;;3.00;93.70;;;;;;5035033;28;20033;-66
2022/02/13 07:46:00;;;;;;;21.48;12.60;;;3.10;93.60;;;;;;5033358;28;20433;-67
2022/02/13 07:48:26;;;;;;;15.38;9.00;;;3.40;93.00;;;;;;5032548;28;20041;-66
2022/02/13 07:50:52;;;;;;;14.95;7.88;;;3.60;92.40;;;;;;5034634;28;20065;-67
2022/02/13 07:53:20;;;;;;;15.20;8.30;;;3.80;91.70;;;;;;5033207;28;20034;-66
2022/02/13 07:55:46;;;;;;;15.80;9.52;;;3.90;91.10;;;;;;5032555;28;20029;-66
2022/02/13 07:58:12;;;;;;;16.05;7.82;;;4.00;90.70;;;;;;5034949;28;20132;-66
2022/02/13 08:00:38;;;;;;;15.35;7.80;;;4.10;90.10;;;;;;5027019;28;20032;-66
2022/02/13 08:03:04;;;;;;;19.50;7.57;;;4.30;89.70;;;;;;5033223;28;20322;-66
2022/02/13 08:05:29;;;;;;;26.08;13.13;;;4.40;89.20;;;;;;5037183;28;20032;-66
2022/02/13 08:07:55;;;;;;;16.98;7.93;;;4.50;88.80;;;;;;5025788;28;20037;-66
2022/02/13 08:10:21;;;;;;;18.23;8.20;;;4.70;88.10;;;;;;5037956;28;20327;-66
2022/02/13 08:12:47;;;;;;;14.20;7.28;;;4.90;87.60;;;;;;5035656;28;20045;-66
2022/02/13 08:15:13;;;;;;;16.65;7.45;;;5.00;87.40;;;;;;5043270;28;20030;-67
2022/02/13 08:17:39;;;;;;;17.15;7.18;;;5.10;86.80;;;;;;5033590;28;20136;-66
2022/02/13 08:20:07;;;;;;;15.88;7.38;;;5.30;86.10;;;;;;5043392;28;20104;-66
2022/02/13 08:22:37;;;;;;;13.77;7.30;;;5.80;85.20;;;;;;5038835;28;20346;-67
2022/02/13 08:25:04;;;;;;;14.38;6.70;;;6.70;82.90;;;;;;5034893;28;20032;-66
2022/02/13 08:27:30;;;;;;;12.32;6.43;;;7.60;80.00;;;;;;5037638;28;20021;-68
2022/02/13 08:29:56;;;;;;;16.90;7.88;;;8.20;78.90;;;;;;5037875;28;20346;-66
2022/02/13 08:32:25;;;;;;;15.27;6.85;;;8.80;76.30;;;;;;5039966;28;20066;-67
2022/02/13 08:34:51;;;;;;;14.57;7.07;;;9.20;75.60;;;;;;5036967;28;20057;-67
2022/02/13 08:37:19;;;;;;;13.65;6.75;;;9.60;74.40;;;;;;5033848;28;20025;-66
2022/02/13 08:39:45;;;;;;;13.15;6.97;;;9.50;73.30;;;;;;5034749;28;20022;-67
2022/02/13 08:42:11;;;;;;;12.63;6.50;;;8.60;74.70;;;;;;5034100;28;20029;-66
2022/02/13 08:44:37;;;;;;;15.43;7.22;;;7.90;76.60;;;;;;5036392;28;20044;-67
2022/02/13 08:47:03;;;;;;;12.65;6.88;;;7.40;78.60;;;;;;5035170;28;20021;-66
2022/02/13 08:49:29;;;;;;;11.82;6.53;;;7.20;79.10;;;;;;5053146;28;20018;-66
2022/02/13 08:51:54;;;;;;;12.93;6.50;;;7.40;79.90;;;;;;5040056;28;20025;-66
2022/02/13 08:54:20;;;;;;;12.65;6.05;;;8.50;77.40;;;;;;5036930;28;20476;-66
2022/02/13 08:56:46;;;;;;;12.60;6.20;;;9.40;74.90;;;;;;5038123;28;20406;-66
2022/02/13 08:59:11;;;;;;;13.50;5.93;;;10.40;73.10;;;;;;5037013;28;20022;-66
2022/02/13 09:01:40;;;;;;;14.75;6.78;;;11.30;70.40;;;;;;5036636;28;20021;-65
2022/02/13 09:04:06;;;;;;;17.38;6.05;;;11.40;68.50;;;;;;5045772;28;20075;-66
2022/02/13 09:06:32;;;;;;;11.45;6.05;;;11.70;69.10;;;;;;5037819;28;20021;-66
2022/02/13 09:08:57;;;;;;;15.55;5.80;;;12.10;69.10;;;;;;5037741;28;20026;-65
2022/02/13 09:11:23;;;;;;;11.98;5.65;;;12.80;67.10;;;;;;5037701;28;20025;-65
2022/02/13 09:13:49;;;;;;;10.95;5.28;;;13.00;65.90;;;;;;5037664;28;20029;-65
2022/02/13 09:16:14;;;;;;;12.88;5.50;;;13.20;64.80;;;;;;5036289;28;20447;-65
2022/02/13 09:18:42;;;;;;;12.82;6.45;;;13.20;64.40;;;;;;5031966;28;20021;-68
2022/02/13 09:21:08;;;;;;;9.70;5.45;;;13.20;64.60;;;;;;5036040;28;20029;-66
2022/02/13 09:23:33;;;;;;;13.38;5.82;;;13.10;64.60;;;;;;5037568;28;20026;-67
2022/02/13 09:25:59;;;;;;;9.57;4.95;;;12.50;64.50;;;;;;5037227;28;20026;-67
2022/02/13 09:28:26;;;;;;;15.10;6.40;;;12.40;66.30;;;;;;5036785;28;20101;-66
2022/02/13 09:30:52;;;;;;;13.05;5.40;;;12.60;64.70;;;;;;5036761;28;20018;-67
2022/02/13 09:33:19;;;;;;;13.45;5.80;;;12.20;65.30;;;;;;5033981;28;20060;-65
2022/02/13 09:35:46;;;;;;;12.13;5.85;;;11.90;66.00;;;;;;5037040;28;20399;-67
2022/02/13 09:38:15;;;;;;;12.20;5.43;;;11.50;67.20;;;;;;5036400;28;20449;-67
2022/02/13 09:40:47;;;;;;;11.55;5.22;;;11.70;66.90;;;;;;5037491;28;20472;-67
2022/02/13 09:43:14;;;;;;;9.35;5.30;;;11.90;66.50;;;;;;5032543;28;20057;-67
2022/02/13 09:45:42;;;;;;;13.38;6.00;;;12.40;66.40;;;;;;5037208;28;20038;-67
2022/02/13 09:48:12;;;;;;;10.45;5.47;;;12.60;64.20;;;;;;5034521;28;20104;-67
2022/02/13 09:50:38;;;;;;;14.02;5.72;;;12.50;64.90;;;;;;5037053;28;20029;-67
2022/02/13 09:53:05;;;;;;;12.85;6.07;;;12.40;64.60;;;;;;5037332;28;20021;-67
2022/02/13 09:55:32;;;;;;;12.13;5.78;;;12.40;64.00;;;;;;5035709;28;20103;-67
2022/02/13 09:58:03;;;;;;;13.80;5.57;;;12.60;65.10;;;;;;5036686;28;20030;-65
2022/02/13 10:00:51;;;;;;;12.57;5.68;;;12.90;63.30;;;;;;5033167;28;20026;-67
2022/02/13 10:03:28;;;;;;;11.90;5.35;;;13.20;62.90;;;;;;5034908;28;20029;-67
2022/02/13 10:05:57;;;;;;;15.77;5.38;;;13.40;62.70;;;;;;5036586;28;20045;-67
2022/02/13 10:08:47;;;;;;;13.73;5.82;;;14.10;61.70;;;;;;5036746;28;20091;-67
2022/02/13 10:11:14;;;;;;;10.75;4.57;;;13.50;61.60;;;;;;5030499;28;20334;-67
2022/02/13 10:13:43;;;;;;;12.25;5.35;;;13.50;63.20;;;;;;5036787;28;20022;-67
2022/02/13 10:16:17;;;;;;;14.23;4.78;;;13.70;61.90;;;;;;5033902;28;20451;-67
2022/02/13 10:18:47;;;;;;;10.80;4.65;;;14.00;61.70;;;;;;5050589;28;20025;-67
2022/02/13 10:21:28;;;;;;;11.40;5.10;;;14.00;61.60;;;;;;5036386;28;20090;-67
2022/02/13 10:24:10;;;;;;;15.10;4.90;;;13.80;60.30;;;;;;5036322;28;20521;-67
2022/02/13 10:26:36;;;;;;;10.90;5.25;;;13.00;62.70;;;;;;5036188;28;20031;-67
2022/02/13 10:29:02;;;;;;;10.57;5.38;;;12.60;62.30;;;;;;5035955;28;20025;-67
2022/02/13 10:31:29;;;;;;;10.52;5.57;;;12.40;62.60;;;;;;5036003;28;20112;-67
2022/02/13 10:33:59;;;;;;;12.02;5.05;;;12.10;62.80;;;;;;5032010;28;20044;-66
2022/02/13 10:36:26;;;;;;;10.85;4.90;;;12.30;62.80;;;;;;5035633;28;20042;-67
2022/02/13 10:38:52;;;;;;;9.65;4.78;;;12.80;62.60;;;;;;5031982;28;20051;-66
2022/02/13 10:41:29;;;;;;;12.18;5.38;;;12.60;61.70;;;;;;5036196;28;20057;-66
2022/02/13 10:44:06;;;;;;;9.82;4.55;;;13.00;61.60;;;;;;5035565;28;20037;-67
2022/02/13 10:46:41;;;;;;;12.48;5.30;;;13.00;61.30;;;;;;5036021;28;20026;-66
2022/02/13 10:49:07;;;;;;;;;;;13.00;62.10;;;;;;5031535;28;20029;-66
2022/02/13 10:51:33;;;;;;;11.90;4.68;;;12.90;60.70;;;;;;5032551;28;19913;-67
2022/02/13 10:54:02;;;;;;;10.25;4.50;;;13.30;60.80;;;;;;5038912;28;20064;-65
2022/02/13 10:56:28;;;;;;;11.50;4.65;;;13.70;59.30;;;;;;5035138;28;20029;-66
2022/02/13 10:58:59;;;;;;;16.67;5.85;;;13.50;59.00;;;;;;5031983;28;20033;-66
2022/02/13 11:01:26;;;;;;;10.27;4.57;;;13.20;58.60;;;;;;5034261;28;20057;-65
2022/02/13 11:03:57;;;;;;;11.43;4.93;;;13.20;60.10;;;;;;5030108;28;20056;-66
2022/02/13 11:06:28;;;;;;;11.32;4.63;;;13.50;58.30;;;;;;5032284;28;20036;-66
2022/02/13 11:08:58;;;;;;;11.02;4.70;;;13.20;60.20;;;;;;5033099;28;20018;-65
2022/02/13 11:11:28;;;;;;;9.13;4.18;;;13.30;58.90;;;;;;5030769;28;20021;-66
2022/02/13 11:13:56;;;;;;;9.90;4.57;;;13.10;59.00;;;;;;5035189;28;20025;-66
2022/02/13 11:16:39;;;;;;;11.80;4.40;;;13.20;59.10;;;;;;5033016;28;20025;-66
2022/02/13 11:19:17;;;;;;;9.75;4.28;;;12.80;59.30;;;;;;5020820;28;20306;-66
2022/02/13 11:21:45;;;;;;;11.85;4.75;;;13.00;59.90;;;;;;5033198;28;20417;-65
2022/02/13 11:24:25;;;;;;;8.48;4.28;;;12.80;58.70;;;;;;5025361;28;20025;-65
2022/02/13 11:26:52;;;;;;;13.63;4.78;;;13.10;59.10;;;;;;5032789;28;20041;-66
2022/02/13 11:29:17;;;;;;;10.45;4.50;;;12.90;59.20;;;;;;5033850;28;20072;-67
2022/02/13 11:31:50;;;;;;;88.20;57.10;;;13.00;59.30;;;;;;5034347;28;20038;-67
2022/02/13 11:34:22;;;;;;;30.33;18.85;;;13.00;59.20;;;;;;5029730;28;20079;-67
2022/02/13 11:37:11;;;;;;;15.65;9.20;;;13.40;59.10;;;;;;5031294;28;20100;-67
2022/02/13 11:39:41;;;;;;;10.57;5.57;;;13.70;58.90;;;;;;5035344;28;20121;-68
2022/02/13 11:42:10;;;;;;;17.02;7.22;;;14.00;58.30;;;;;;5033070;28;20029;-67
2022/02/13 11:44:45;;;;;;;17.25;6.78;;;14.00;56.80;;;;;;5030353;28;20038;-66
2022/02/13 11:47:12;;;;;;;13.18;7.88;;;13.00;57.40;;;;;;5027208;28;20179;-66
2022/02/13 11:52:33;;;;;;;17.02;8.77;;;12.90;58.90;;;;;;5030960;28;20087;-66
2022/02/13 11:54:59;;;;;;;11.82;6.60;;;12.90;59.30;;;;;;5030147;28;20029;-68
2022/02/13 11:57:33;;;;;;;12.20;4.38;;;13.10;59.40;;;;;;5033607;28;20021;-67
2022/02/13 11:59:58;;;;;;;11.37;5.70;;;13.20;59.20;;;;;;5034386;28;20053;-66
2022/02/13 12:02:30;;;;;;;12.57;7.10;;;13.40;60.00;;;;;;5027317;28;20272;-66
2022/02/13 12:05:09;;;;;;;9.32;4.20;;;13.40;59.90;;;;;;5034110;28;20025;-66
2022/02/13 12:07:51;;;;;;;11.30;4.35;;;13.20;59.40;;;;;;5024484;28;20109;-65
2022/02/13 12:10:36;;;;;;;7.65;4.25;;;12.70;59.60;;;;;;5034066;28;20112;-66
2022/02/13 12:13:10;;;;;;;10.93;5.00;;;13.10;60.00;;;;;;5034823;28;20037;-66
2022/02/13 12:15:38;;;;;;;14.38;7.72;;;12.60;59.50;;;;;;5028175;28;20434;-68
2022/02/13 12:18:08;;;;;;;9.77;4.15;;;12.50;60.80;;;;;;5026614;28;20026;-65
2022/02/13 12:20:36;;;;;;;8.85;4.10;;;12.60;60.00;;;;;;5030816;28;20034;-65
2022/02/13 12:23:04;;;;;;;11.45;5.93;;;12.40;60.90;;;;;;5023020;28;20029;-67
2022/02/13 12:25:35;;;;;;;11.07;4.88;;;11.90;61.50;;;;;;5035447;28;20030;-66
2022/02/13 12:28:05;;;;;;;12.60;4.72;;;11.90;61.90;;;;;;5029078;28;20022;-66
2022/02/13 12:30:33;;;;;;;10.18;4.50;;;12.30;61.20;;;;;;5029410;28;20056;-66
2022/02/13 12:33:04;;;;;;;13.15;6.10;;;12.30;60.50;;;;;;5026879;28;20335;-67
2022/02/13 12:35:39;;;;;;;10.95;4.45;;;12.20;61.40;;;;;;5035337;28;20071;-65
2022/02/13 12:38:05;;;;;;;10.82;4.72;;;12.30;61.10;;;;;;5031590;28;20025;-66
2022/02/13 12:40:43;;;;;;;7.88;3.67;;;12.30;60.30;;;;;;5027199;28;20037;-65
2022/02/13 12:43:14;;;;;;;13.60;6.80;;;12.40;60.60;;;;;;5027194;28;20030;-66
2022/02/13 12:45:41;;;;;;;8.73;3.80;;;12.80;61.20;;;;;;5034876;28;20026;-66
2022/02/13 12:48:09;;;;;;;11.48;5.07;;;12.90;60.00;;;;;;5034156;28;20044;-66
2022/02/13 12:50:40;;;;;;;14.13;8.45;;;12.80;60.30;;;;;;5038168;28;20410;-67